Time;durP1;ratioP1;P1;durP2;ratioP2;P2;SDS_P1;SDS_P2;PMS_P1;PMS_P2;Temp;Humidity;BMP_temperature;BMP_pressure;BME280_temperature;BME280_humidity;BME280_pressure;Samples;Min_cycle;Max_cycle;Signal;HPM_P1;HPM_P2
2024/04/15 00:02:25;;;;;;;8.33;4.55;;;14.40;92.90;;;;;;1905641;75;21016;-48
2024/04/15 00:04:54;;;;;;;5.00;4.05;;;14.40;92.90;;;;;;1905510;75;21032;-49
2024/04/15 00:07:23;;;;;;;6.15;4.50;;;14.40;93.00;;;;;;1905610;75;21020;-48
2024/04/15 00:09:54;;;;;;;6.12;4.53;;;14.40;92.90;;;;;;1905532;75;21494;-51
2024/04/15 00:12:23;;;;;;;8.13;5.28;;;14.40;93.00;;;;;;1905510;74;21125;-51
2024/04/15 00:14:52;;;;;;;7.53;4.35;;;14.40;92.90;;;;;;1905486;75;21109;-51
2024/04/15 00:17:21;;;;;;;5.08;4.22;;;14.40;92.90;;;;;;1905386;75;21152;-51
2024/04/15 00:19:54;;;;;;;5.65;4.33;;;14.40;93.00;;;;;;1905408;75;21007;-51
2024/04/15 00:22:23;;;;;;;5.67;4.15;;;14.40;93.00;;;;;;1905400;75;21442;-51
2024/04/15 00:24:52;;;;;;;5.05;4.25;;;14.40;92.90;;;;;;1905403;75;21023;-49
2024/04/15 00:27:21;;;;;;;5.42;4.55;;;14.40;92.90;;;;;;1905377;74;21070;-47
2024/04/15 00:29:50;;;;;;;7.20;4.72;;;14.40;93.00;;;;;;1905330;75;21008;-49
2024/04/15 00:32:19;;;;;;;6.95;4.60;;;14.40;93.00;;;;;;1905272;75;21113;-49
2024/04/15 00:34:49;;;;;;;7.55;4.50;;;14.40;93.10;;;;;;1905377;74;21003;-49
2024/04/15 00:37:18;;;;;;;5.20;4.12;;;14.40;93.00;;;;;;1924458;74;21053;-48
2024/04/15 00:39:48;;;;;;;7.40;4.70;;;14.40;93.10;;;;;;1924773;74;21073;-50
2024/04/15 00:42:17;;;;;;;10.72;5.25;;;14.40;93.10;;;;;;1924744;74;21017;-48
2024/04/15 00:44:46;;;;;;;8.38;4.95;;;14.40;93.10;;;;;;1924703;74;21019;-48
2024/04/15 00:47:16;;;;;;;7.78;4.75;;;14.40;93.10;;;;;;1924742;74;21011;-48
2024/04/15 00:49:45;;;;;;;7.15;5.25;;;14.40;93.00;;;;;;1924786;74;21116;-48
2024/04/15 00:52:15;;;;;;;6.30;4.47;;;14.40;93.00;;;;;;1924781;74;21068;-48
2024/04/15 00:54:46;;;;;;;5.53;3.98;;;14.40;93.10;;;;;;1924815;74;21394;-48
2024/04/15 00:57:15;;;;;;;7.40;4.45;;;14.40;93.00;;;;;;1924711;74;21143;-49
2024/04/15 00:59:45;;;;;;;6.35;4.15;;;14.40;93.00;;;;;;1924787;74;21159;-48
2024/04/15 01:02:13;;;;;;;6.75;4.83;;;14.40;93.30;;;;;;1924769;74;20998;-48
2024/04/15 01:04:43;;;;;;;7.10;4.12;;;14.30;93.30;;;;;;1924780;74;21019;-48
2024/04/15 01:07:12;;;;;;;9.33;5.47;;;14.30;93.40;;;;;;1924908;74;21156;-48
2024/04/15 01:09:41;;;;;;;18.20;4.87;;;14.30;93.30;;;;;;1924754;74;21027;-48
2024/04/15 01:12:10;;;;;;;14.98;5.60;;;14.30;93.30;;;;;;1924859;74;21081;-48
2024/04/15 01:14:39;;;;;;;22.58;6.17;;;14.30;93.60;;;;;;1924831;74;21054;-48
2024/04/15 01:17:08;;;;;;;13.40;4.62;;;14.30;93.80;;;;;;1924716;74;21120;-48
2024/04/15 01:19:37;;;;;;;6.00;4.55;;;14.30;93.70;;;;;;1924832;74;21086;-48
2024/04/15 01:22:09;;;;;;;7.08;4.40;;;14.30;93.80;;;;;;1924785;74;20987;-47
2024/04/15 01:24:38;;;;;;;12.53;5.35;;;14.20;93.90;;;;;;1924792;74;21080;-48
2024/04/15 01:27:07;;;;;;;22.40;5.22;;;14.20;94.00;;;;;;1924754;74;21015;-48
2024/04/15 01:29:36;;;;;;;16.15;5.42;;;14.20;94.20;;;;;;1924795;74;21023;-48
2024/04/15 01:32:06;;;;;;;7.17;5.10;;;14.20;94.10;;;;;;1924766;74;21035;-49
2024/04/15 01:34:35;;;;;;;11.00;5.17;;;14.20;94.20;;;;;;1924782;74;21023;-48
2024/04/15 01:37:05;;;;;;;15.58;5.45;;;14.10;94.20;;;;;;1912752;74;21027;-47
2024/04/15 01:39:34;;;;;;;8.03;4.70;;;14.10;94.40;;;;;;1905307;75;21035;-48
2024/04/15 01:42:03;;;;;;;12.35;5.30;;;14.10;94.50;;;;;;1905278;75;21000;-47
2024/04/15 01:44:33;;;;;;;17.42;5.05;;;14.10;94.60;;;;;;1905335;75;20995;-48
2024/04/15 01:47:02;;;;;;;25.60;6.80;;;14.10;94.60;;;;;;1905391;75;21160;-48
2024/04/15 01:49:31;;;;;;;7.83;5.03;;;14.10;94.80;;;;;;1905247;75;21525;-48
2024/04/15 01:52:00;;;;;;;7.60;4.08;;;14.10;94.90;;;;;;1905274;75;21019;-48
2024/04/15 01:54:30;;;;;;;13.18;4.53;;;14.10;94.70;;;;;;1905321;75;21016;-48
2024/04/15 01:56:59;;;;;;;16.60;7.12;;;14.10;94.90;;;;;;1905244;75;21097;-48
2024/04/15 01:59:28;;;;;;;27.40;6.53;;;14.00;95.10;;;;;;1905291;75;21031;-48
2024/04/15 02:01:57;;;;;;;10.53;4.45;;;14.00;95.20;;;;;;1905239;75;21036;-48
2024/04/15 02:04:26;;;;;;;23.67;6.22;;;14.00;95.40;;;;;;1905285;75;20999;-48
2024/04/15 02:06:55;;;;;;;17.48;5.95;;;14.00;95.30;;;;;;1905355;75;21019;-49
2024/04/15 02:09:24;;;;;;;9.95;6.08;;;14.00;95.30;;;;;;1905370;75;21015;-47
2024/04/15 02:11:53;;;;;;;13.62;5.25;;;14.00;95.40;;;;;;1905228;75;21007;-48
2024/04/15 02:14:23;;;;;;;12.85;5.08;;;14.00;95.30;;;;;;1905428;75;21015;-48
2024/04/15 02:16:52;;;;;;;9.30;5.35;;;14.00;95.40;;;;;;1905318;75;21024;-48
2024/04/15 02:19:23;;;;;;;12.45;5.60;;;14.00;95.50;;;;;;1905496;75;21161;-50
2024/04/15 02:21:52;;;;;;;7.97;5.58;;;14.00;95.50;;;;;;1905399;75;21145;-48
2024/04/15 02:24:21;;;;;;;12.55;6.40;;;14.00;95.50;;;;;;1905316;75;21118;-48
2024/04/15 02:26:50;;;;;;;12.93;5.95;;;14.00;95.50;;;;;;1905410;75;21035;-48
2024/04/15 02:29:19;;;;;;;16.07;6.30;;;14.00;95.40;;;;;;1905460;75;21427;-47
2024/04/15 02:31:48;;;;;;;14.03;6.22;;;13.90;95.40;;;;;;1905339;74;21036;-47
2024/04/15 02:34:18;;;;;;;10.45;5.20;;;14.00;95.50;;;;;;1905381;75;21015;-48
2024/04/15 02:36:48;;;;;;;11.03;5.67;;;14.00;95.50;;;;;;1909521;74;21093;-48
2024/04/15 02:39:18;;;;;;;8.60;5.70;;;14.00;95.50;;;;;;1924622;74;21003;-48
2024/04/15 02:41:47;;;;;;;15.32;5.90;;;14.00;95.40;;;;;;1924649;74;21084;-47
2024/04/15 02:44:16;;;;;;;35.70;7.30;;;14.00;95.40;;;;;;1924684;74;21003;-48
2024/04/15 02:46:45;;;;;;;8.00;5.15;;;14.00;95.40;;;;;;1924571;74;21070;-48
2024/04/15 02:49:14;;;;;;;11.83;5.97;;;14.10;95.50;;;;;;1924629;74;21531;-48
2024/04/15 02:51:43;;;;;;;11.00;6.62;;;14.10;95.30;;;;;;1924720;74;21035;-48
2024/04/15 02:54:12;;;;;;;10.23;6.97;;;14.10;95.30;;;;;;1924649;74;21082;-48
2024/04/15 02:56:41;;;;;;;17.70;6.40;;;;;;;;;;1924671;74;21031;-48
2024/04/15 02:59:10;;;;;;;8.93;5.83;;;;;;;;;;1924671;74;21031;-48
2024/04/15 03:01:38;;;;;;;7.60;4.90;;;;;;;;;;1924619;74;21096;-48
2024/04/15 03:04:07;;;;;;;8.53;6.12;;;;;;;;;;1924763;74;20999;-48
2024/04/15 03:06:36;;;;;;;6.53;4.83;;;;;;;;;;1924566;74;21027;-48
2024/04/15 03:09:04;;;;;;;19.85;6.95;;;;;;;;;;1924754;74;21010;-47
2024/04/15 03:11:33;;;;;;;11.73;6.08;;;;;;;;;;1924616;74;21035;-48
2024/04/15 03:14:01;;;;;;;13.13;5.70;;;;;;;;;;1924734;74;21108;-47
2024/04/15 03:16:30;;;;;;;9.65;6.53;;;;;;;;;;1924574;74;21104;-48
2024/04/15 03:18:59;;;;;;;8.63;6.40;;;;;;;;;;1924579;74;21084;-48
2024/04/15 03:21:27;;;;;;;8.68;6.05;;;;;;;;;;1924596;74;21094;-48
2024/04/15 03:23:56;;;;;;;13.00;7.37;;;;;;;;;;1924593;74;21030;-48
2024/04/15 03:26:25;;;;;;;14.07;6.67;;;;;;;;;;1924521;74;21120;-48
2024/04/15 03:28:53;;;;;;;13.43;6.72;;;;;;;;;;1924693;74;21041;-48
2024/04/15 03:31:22;;;;;;;23.18;6.83;;;;;;;;;;1924605;74;21077;-48
2024/04/15 03:33:51;;;;;;;19.00;6.80;;;;;;;;;;1924618;74;21191;-48
2024/04/15 03:36:19;;;;;;;8.25;5.05;;;;;;;;;;1924640;74;21030;-49
2024/04/15 03:38:48;;;;;;;11.70;5.95;;;;;;;;;;1924483;74;21062;-48
2024/04/15 03:41:16;;;;;;;10.32;4.53;;;;;;;;;;1924693;74;21030;-48
2024/04/15 03:43:46;;;;;;;10.45;5.87;;;;;;;;;;1924618;74;21031;-48
2024/04/15 03:46:15;;;;;;;9.53;5.87;;;;;;;;;;1924491;74;21007;-48
2024/04/15 03:48:44;;;;;;;14.20;6.47;;;;;;;;;;1924587;74;21120;-47
2024/04/15 03:51:12;;;;;;;11.12;5.70;;;;;;;;;;1924664;74;21054;-47
2024/04/15 03:53:41;;;;;;;10.55;5.90;;;;;;;;;;1924592;74;21148;-48
2024/04/15 03:56:09;;;;;;;8.68;5.50;;;;;;;;;;1924575;74;21022;-51
2024/04/15 03:58:38;;;;;;;16.05;6.60;;;;;;;;;;1924696;74;21120;-48
2024/04/15 04:01:07;;;;;;;9.65;5.72;;;;;;;;;;1924666;74;21105;-48
2024/04/15 04:03:35;;;;;;;15.55;6.03;;;;;;;;;;1924809;74;21014;-48
2024/04/15 04:06:04;;;;;;;8.90;6.03;;;;;;;;;;1924616;74;21011;-48
2024/04/15 04:08:32;;;;;;;11.65;6.90;;;;;;;;;;1924546;74;21058;-49
2024/04/15 04:11:07;;;;;;;6.30;4.53;;;;;;;;;;1924500;74;21021;-48
2024/04/15 04:13:36;;;;;;;8.55;5.00;;;;;;;;;;1924555;74;21007;-51
2024/04/15 04:16:05;;;;;;;16.97;5.83;;;;;;;;;;1924511;74;21096;-50
2024/04/15 04:18:34;;;;;;;16.65;5.25;;;;;;;;;;1924565;74;21035;-50
2024/04/15 04:21:04;;;;;;;9.73;5.72;;;;;;;;;;1924512;74;21058;-51
2024/04/15 04:23:32;;;;;;;11.48;5.60;;;;;;;;;;1924117;74;21054;-50
2024/04/15 04:26:01;;;;;;;14.47;6.28;;;;;;;;;;1924504;74;21109;-50
2024/04/15 04:28:30;;;;;;;11.90;5.42;;;;;;;;;;1924482;74;20995;-50
2024/04/15 04:31:05;;;;;;;11.10;4.55;;;;;;;;;;1924506;74;21108;-49
2024/04/15 04:33:33;;;;;;;12.43;5.58;;;;;;;;;;1924527;74;21034;-49
2024/04/15 04:36:02;;;;;;;13.88;6.17;;;;;;;;;;1924473;74;21018;-48
2024/04/15 04:38:30;;;;;;;17.70;6.50;;;;;;;;;;1924450;74;21046;-48
2024/04/15 04:41:02;;;;;;;14.23;5.97;;;;;;;;;;1924581;74;21097;-48
2024/04/15 04:43:30;;;;;;;15.05;5.95;;;;;;;;;;1924628;74;21026;-49
2024/04/15 04:46:00;;;;;;;6.67;4.33;;;;;;;;;;1924556;74;21031;-49
2024/04/15 04:48:29;;;;;;;21.30;6.70;;;;;;;;;;1924017;74;21120;-50
2024/04/15 04:50:59;;;;;;;5.62;4.30;;;;;;;;;;1924678;74;21094;-49
2024/04/15 04:53:28;;;;;;;28.62;7.08;;;;;;;;;;1924378;74;21015;-48
2024/04/15 04:55:58;;;;;;;19.00;7.08;;;;;;;;;;1924707;74;21026;-48
2024/04/15 04:58:26;;;;;;;11.48;5.25;;;;;;;;;;1923764;74;21527;-48
2024/04/15 05:00:55;;;;;;;13.25;5.00;;;;;;;;;;1924725;74;21039;-49
2024/04/15 05:03:24;;;;;;;25.80;12.05;;;;;;;;;;1924713;74;21043;-49
2024/04/15 05:05:52;;;;;;;11.68;5.62;;;;;;;;;;1924570;74;21066;-48
2024/04/15 05:08:21;;;;;;;17.48;5.15;;;;;;;;;;1924757;74;21092;-48
2024/04/15 05:10:49;;;;;;;21.50;6.22;;;;;;;;;;1924701;74;21030;-48
2024/04/15 05:13:18;;;;;;;13.15;4.90;;;;;;;;;;1924670;74;21011;-49
2024/04/15 05:15:47;;;;;;;12.30;5.65;;;;;;;;;;1924548;74;21027;-49
2024/04/15 05:18:15;;;;;;;14.95;5.65;;;;;;;;;;1924629;74;21070;-48
2024/04/15 05:20:44;;;;;;;13.18;5.53;;;;;;;;;;1924689;74;21095;-50
2024/04/15 05:23:12;;;;;;;13.78;4.47;;;;;;;;;;1924649;74;21151;-48
2024/04/15 05:25:41;;;;;;;9.23;4.90;;;;;;;;;;1924542;74;21097;-49
2024/04/15 05:28:10;;;;;;;10.40;4.97;;;;;;;;;;1924595;74;21010;-47
2024/04/15 05:30:38;;;;;;;14.03;4.85;;;;;;;;;;1924658;74;21027;-50
2024/04/15 05:33:07;;;;;;;9.58;5.03;;;;;;;;;;1924611;74;21027;-50
2024/04/15 05:35:36;;;;;;;10.95;5.70;;;;;;;;;;1924646;74;21128;-48
2024/04/15 05:38:04;;;;;;;16.07;5.05;;;;;;;;;;1921084;74;21028;-50
2024/04/15 05:40:33;;;;;;;9.35;4.95;;;;;;;;;;1905382;75;21058;-49
2024/04/15 05:43:02;;;;;;;14.47;5.50;;;;;;;;;;1905359;75;21024;-48
2024/04/15 05:45:30;;;;;;;14.68;5.25;;;;;;;;;;1905309;75;21088;-48
2024/04/15 05:47:59;;;;;;;13.70;5.67;;;;;;;;;;1905342;75;21105;-48
2024/04/15 05:50:28;;;;;;;17.00;6.90;;;;;;;;;;1905360;75;21015;-48
2024/04/15 05:52:56;;;;;;;42.60;5.90;;;;;;;;;;1905411;75;21016;-49
2024/04/15 05:55:25;;;;;;;37.95;8.28;;;;;;;;;;1905250;75;21105;-48
2024/04/15 05:57:54;;;;;;;11.78;5.00;;;;;;;;;;1905349;75;21031;-51
2024/04/15 06:00:22;;;;;;;7.25;5.40;;;;;;;;;;1905382;75;21067;-48
2024/04/15 06:02:51;;;;;;;6.55;4.75;;;;;;;;;;1905303;75;21016;-48
2024/04/15 06:05:19;;;;;;;8.35;5.15;;;;;;;;;;1905559;75;21097;-49
2024/04/15 06:07:48;;;;;;;15.75;6.47;;;;;;;;;;1905333;75;21024;-48
2024/04/15 06:10:17;;;;;;;19.87;6.35;;;;;;;;;;1905326;75;21027;-48
2024/04/15 06:12:45;;;;;;;4.92;4.40;;;;;;;;;;1905352;75;21101;-49
2024/04/15 06:15:14;;;;;;;12.10;6.62;;;;;;;;;;1905305;75;21027;-49
2024/04/15 06:17:43;;;;;;;11.75;4.85;;;;;;;;;;1905306;75;21071;-50
2024/04/15 06:20:12;;;;;;;13.85;5.00;;;;;;;;;;1905335;75;21024;-48
2024/04/15 06:22:40;;;;;;;23.42;7.35;;;;;;;;;;1905287;75;21077;-50
2024/04/15 06:25:09;;;;;;;8.95;5.40;;;;;;;;;;1905408;75;21061;-50
2024/04/15 06:27:37;;;;;;;6.85;4.28;;;;;;;;;;1905244;75;21105;-48
2024/04/15 06:30:06;;;;;;;31.10;5.87;;;;;;;;;;1905417;75;21142;-48
2024/04/15 06:32:35;;;;;;;6.03;3.90;;;;;;;;;;1905408;75;21023;-49
2024/04/15 06:35:04;;;;;;;7.95;5.05;;;;;;;;;;1905336;75;21039;-51
2024/04/15 06:37:32;;;;;;;12.88;5.80;;;;;;;;;;1905278;75;21101;-49
2024/04/15 06:40:01;;;;;;;9.33;4.87;;;;;;;;;;1920546;74;21030;-51
2024/04/15 06:42:30;;;;;;;16.77;5.15;;;;;;;;;;1924679;74;21007;-49
2024/04/15 06:44:59;;;;;;;12.90;3.87;;;;;;;;;;1924747;74;21027;-50
2024/04/15 06:47:27;;;;;;;7.45;3.65;;;;;;;;;;1924657;74;21121;-50
2024/04/15 06:49:56;;;;;;;18.07;5.53;;;;;;;;;;1924826;74;21026;-49
2024/04/15 06:52:25;;;;;;;10.40;4.85;;;;;;;;;;1924658;74;21003;-49
2024/04/15 06:54:53;;;;;;;20.65;6.12;;;;;;;;;;1924713;74;21066;-49
2024/04/15 06:57:22;;;;;;;10.13;5.20;;;;;;;;;;1924811;74;21087;-50
2024/04/15 06:59:51;;;;;;;27.50;6.67;;;;;;;;;;1924790;74;21023;-49
2024/04/15 07:02:23;;;;;;;10.43;4.28;;;;;;;;;;1924674;74;21198;-49
2024/04/15 07:04:52;;;;;;;12.55;4.45;;;;;;;;;;1924599;74;21474;-49
2024/04/15 07:07:25;;;;;;;13.05;5.75;;;;;;;;;;1924636;74;21023;-49
2024/04/15 07:09:54;;;;;;;17.95;6.12;;;;;;;;;;1924737;74;21023;-48
2024/04/15 07:12:22;;;;;;;16.27;5.12;;;;;;;;;;1924661;74;21035;-49
2024/04/15 07:14:51;;;;;;;16.55;5.78;;;;;;;;;;1924747;74;21038;-49
2024/04/15 07:17:20;;;;;;;23.73;6.42;;;;;;;;;;1924651;74;21023;-49
2024/04/15 07:19:49;;;;;;;18.95;6.17;;;;;;;;;;1924710;74;21027;-50
2024/04/15 07:22:18;;;;;;;16.73;7.10;;;;;;;;;;1924675;74;21031;-50
2024/04/15 07:24:46;;;;;;;19.30;7.83;;;;;;;;;;1924708;74;20991;-51
2024/04/15 07:27:15;;;;;;;12.50;6.00;;;;;;;;;;1924573;74;21010;-50
2024/04/15 07:29:45;;;;;;;16.57;4.83;;;;;;;;;;1924569;74;21416;-49
2024/04/15 07:32:14;;;;;;;20.60;4.97;;;;;;;;;;1924604;74;21080;-49
2024/04/15 07:34:46;;;;;;;16.20;5.37;;;;;;;;;;1924631;74;21148;-50
2024/04/15 07:37:14;;;;;;;8.28;4.65;;;;;;;;;;1924624;74;21018;-48
2024/04/15 07:39:43;;;;;;;9.05;5.75;;;;;;;;;;1924658;74;21081;-47
2024/04/15 07:42:12;;;;;;;22.40;6.50;;;;;;;;;;1924766;74;21034;-50
2024/04/15 07:44:41;;;;;;;11.83;5.05;;;;;;;;;;1924695;74;21441;-49
2024/04/15 07:47:09;;;;;;;14.03;4.72;;;;;;;;;;1924750;74;20999;-50
2024/04/15 07:49:38;;;;;;;12.03;5.00;;;;;;;;;;1924775;74;21007;-50
2024/04/15 07:52:06;;;;;;;10.50;5.17;;;;;;;;;;1924638;74;21031;-49
2024/04/15 07:54:36;;;;;;;7.67;3.87;;;;;;;;;;1924738;74;21022;-48
2024/04/15 07:57:07;;;;;;;11.00;4.97;;;;;;;;;;1924465;74;21006;-51
2024/04/15 07:59:35;;;;;;;6.10;3.67;;;;;;;;;;1897403;73;21480;-49
2024/04/15 08:02:04;;;;;;;19.65;4.53;;;;;;;;;;1920043;73;21082;-51
2024/04/15 08:04:33;;;;;;;15.32;4.95;;;;;;;;;;1896959;74;21039;-51
2024/04/15 08:07:02;;;;;;;16.95;5.08;;;;;;;;;;1938695;73;21104;-51
2024/04/15 08:09:30;;;;;;;16.20;5.37;;;;;;;;;;1894697;73;21037;-52
2024/04/15 08:11:59;;;;;;;10.18;4.03;;;;;;;;;;1933312;73;21014;-49
2024/04/15 08:14:27;;;;;;;38.53;7.03;;;;;;;;;;1937249;73;21104;-50
2024/04/15 08:16:56;;;;;;;7.90;5.00;;;;;;;;;;1900165;73;21046;-51
2024/04/15 08:19:25;;;;;;;10.75;5.62;;;;;;;;;;1924512;74;21104;-51
2024/04/15 08:21:53;;;;;;;17.27;4.90;;;;;;;;;;1923927;73;21077;-51
2024/04/15 08:24:22;;;;;;;17.62;4.35;;;;;;;;;;1928510;73;21124;-51
2024/04/15 08:26:50;;;;;;;5.05;4.10;;;;;;;;;;1904233;73;21026;-48
2024/04/15 08:29:19;;;;;;;7.62;4.47;;;;;;;;;;1942391;73;21108;-50
2024/04/15 08:31:48;;;;;;;25.82;5.30;;;;;;;;;;1891383;76;21168;-49
2024/04/15 08:34:17;;;;;;;8.55;4.60;;;;;;;;;;1891324;76;21010;-50
2024/04/15 08:36:45;;;;;;;12.13;4.40;;;;;;;;;;1891205;75;21156;-44
2024/04/15 08:39:14;;;;;;;11.65;3.77;;;;;;;;;;1890777;76;21062;-49
2024/04/15 08:41:46;;;;;;;43.23;7.30;;;;;;;;;;1872574;76;21031;-52
2024/04/15 08:44:17;;;;;;;20.60;4.83;;;;;;;;;;1872699;76;21015;-49
2024/04/15 08:46:47;;;;;;;16.55;5.50;;;;;;;;;;1872521;77;21046;-48
2024/04/15 08:49:16;;;;;;;7.72;3.58;;;;;;;;;;1872656;76;21054;-50
2024/04/15 08:51:45;;;;;;;8.13;4.30;;;;;;;;;;1871193;77;21039;-48
2024/04/15 08:54:14;;;;;;;9.78;4.03;;;;;;;;;;1871814;75;21055;-51
2024/04/15 08:56:43;;;;;;;11.12;6.67;;;;;;;;;;1872176;77;21091;-50
2024/04/15 08:59:15;;;;;;;17.73;4.60;;;;;;;;;;1872023;77;21035;-51
2024/04/15 09:01:43;;;;;;;10.32;4.10;;;;;;;;;;1871986;77;21058;-50
2024/04/15 09:04:12;;;;;;;7.12;2.92;;;;;;;;;;1872667;75;21148;-51
2024/04/15 09:06:42;;;;;;;5.70;2.87;;;;;;;;;;1871753;77;21068;-50
2024/04/15 09:09:10;;;;;;;6.20;4.87;;;;;;;;;;1872259;76;21041;-49
2024/04/15 09:11:39;;;;;;;13.90;4.72;;;;;;;;;;1872070;77;21068;-51
2024/04/15 09:14:08;;;;;;;10.38;4.50;;;;;;;;;;1872112;76;21161;-49
2024/04/15 09:16:37;;;;;;;5.40;3.85;;;;;;;;;;1872018;77;21111;-48
2024/04/15 09:19:08;;;;;;;7.78;3.12;;;;;;;;;;1872062;76;21162;-51
2024/04/15 09:21:37;;;;;;;10.13;4.65;;;;;;;;;;1871869;76;21069;-47
2024/04/15 09:24:06;;;;;;;11.75;5.12;;;;;;;;;;1871972;76;21471;-47
2024/04/15 09:26:34;;;;;;;26.20;6.45;;;;;;;;;;1872022;77;21092;-47
2024/04/15 09:29:03;;;;;;;7.65;3.65;;;;;;;;;;1872017;75;21320;-48
2024/04/15 09:31:32;;;;;;;9.23;4.50;;;;;;;;;;1872108;77;21095;-48
2024/04/15 09:34:00;;;;;;;11.18;4.58;;;;;;;;;;1871993;77;21082;-49
2024/04/15 09:36:31;;;;;;;5.25;3.67;;;;;;;;;;1871991;76;21060;-47
2024/04/15 09:39:00;;;;;;;7.35;4.58;;;;;;;;;;1872888;74;21088;-46
2024/04/15 09:41:29;;;;;;;8.83;3.52;;;;;;;;;;1891992;74;21093;-47
2024/04/15 09:43:59;;;;;;;10.32;3.92;;;;;;;;;;1948035;73;21022;-47
2024/04/15 09:46:31;;;;;;;17.80;5.70;;;;;;;;;;1907975;74;21050;-47
2024/04/15 09:49:00;;;;;;;11.78;4.78;;;;;;;;;;1896988;74;21525;-47
2024/04/15 09:51:30;;;;;;;13.03;4.40;;;;;;;;;;1897177;75;21458;-47
2024/04/15 09:54:01;;;;;;;9.85;5.08;;;;;;;;;;1898784;75;21074;-48
2024/04/15 09:56:30;;;;;;;14.35;5.05;;;;;;;;;;1907607;75;21062;-47
2024/04/15 09:59:01;;;;;;;19.15;4.53;;;;;;;;;;1914092;75;21039;-47
2024/04/15 10:01:32;;;;;;;15.23;4.65;;;;;;;;;;1913727;74;21141;-48
2024/04/15 10:04:04;;;;;;;11.85;4.78;;;;;;;;;;1914117;74;21019;-51
2024/04/15 10:06:36;;;;;;;9.30;3.67;;;;;;;;;;1913959;75;21029;-47
2024/04/15 10:09:06;;;;;;;3.60;3.25;;;;;;;;;;1913999;75;21172;-48
2024/04/15 10:11:35;;;;;;;6.12;3.85;;;;;;;;;;1913973;75;21050;-46
2024/04/15 10:14:04;;;;;;;10.43;3.85;;;;;;;;;;1914035;75;21622;-47
2024/04/15 10:16:34;;;;;;;14.03;4.75;;;;;;;;;;1913930;75;21105;-47
2024/04/15 10:19:04;;;;;;;8.73;4.37;;;;;;;;;;1912883;75;21611;-48
2024/04/15 10:21:33;;;;;;;6.00;4.10;;;;;;;;;;1914124;75;21019;-48
2024/04/15 10:24:02;;;;;;;5.72;3.70;;;;;;;;;;1913768;75;21079;-47
2024/04/15 10:26:31;;;;;;;11.63;5.10;;;;;;;;;;1913159;75;21094;-48
2024/04/15 10:29:18;;;;;;;13.93;5.75;;;;;;;;;;1892628;75;21118;-48
2024/04/15 10:31:53;;;;;;;9.03;4.42;;;;;;;;;;1885733;75;21064;-48
2024/04/15 10:34:22;;;;;;;12.82;5.28;;;;;;;;;;1881498;76;21153;-51
2024/04/15 10:36:51;;;;;;;28.73;8.20;;;;;;;;;;1891375;75;21015;-48
2024/04/15 10:39:19;;;;;;;15.63;4.87;;;;;;;;;;1886343;75;21088;-49
2024/04/15 10:41:48;;;;;;;6.90;5.62;;;;;;;;;;1891205;74;21151;-50
2024/04/15 10:44:17;;;;;;;8.68;4.67;;;;;;;;;;1917048;74;21155;-49
2024/04/15 10:46:46;;;;;;;12.55;5.40;;;;;;;;;;1892608;74;21028;-47
2024/04/15 10:49:15;;;;;;;10.23;4.78;;;;;;;;;;1910844;74;21088;-47
2024/04/15 10:51:45;;;;;;;10.18;4.95;;;;;;;;;;1906694;74;21010;-45
2024/04/15 10:54:14;;;;;;;8.15;3.90;;;;;;;;;;1903071;74;21023;-45
2024/04/15 10:56:44;;;;;;;7.50;4.03;;;;;;;;;;1902370;74;21006;-44
2024/04/15 10:59:15;;;;;;;6.10;4.75;;;;;;;;;;1901238;74;21035;-44
2024/04/15 11:01:45;;;;;;;10.23;4.90;;;;;;;;;;1909704;74;21094;-46
2024/04/15 11:04:15;;;;;;;7.00;4.15;;;;;;;;;;1895822;74;21375;-46
2024/04/15 11:06:44;;;;;;;9.65;3.95;;;;;;;;;;1905338;74;21073;-47
2024/04/15 11:09:12;;;;;;;5.95;4.45;;;;;;;;;;1923150;74;21085;-47
2024/04/15 11:11:42;;;;;;;5.20;4.33;;;;;;;;;;1902064;74;21044;-47
2024/04/15 11:14:11;;;;;;;7.75;4.58;;;;;;;;;;1912403;74;21018;-46
2024/04/15 11:16:44;;;;;;;8.60;4.85;;;;;;;;;;1923853;74;21018;-45
2024/04/15 11:19:12;;;;;;;8.40;4.12;;;;;;;;;;1918199;74;21161;-46
2024/04/15 11:21:41;;;;;;;7.05;4.37;;;;;;;;;;1923706;74;21026;-45
2024/04/15 11:24:09;;;;;;;5.92;3.98;;;;;;;;;;1923645;74;21070;-47
2024/04/15 11:26:39;;;;;;;6.22;4.72;;;;;;;;;;1899583;74;21024;-49
2024/04/15 11:29:08;;;;;;;11.22;4.47;;;;;;;;;;1894090;74;21172;-48
2024/04/15 11:31:43;;;;;;;9.60;4.78;;;;;;;;;;1903402;74;21107;-49
2024/04/15 11:34:11;;;;;;;7.10;4.17;;;;;;;;;;1907345;74;21094;-48
2024/04/15 11:36:40;;;;;;;7.35;4.50;;;;;;;;;;1896062;74;21110;-51
2024/04/15 11:39:08;;;;;;;7.62;3.55;;;;;;;;;;1907809;74;21070;-49
2024/04/15 11:41:37;;;;;;;6.15;4.33;;;;;;;;;;1896511;74;21145;-48
2024/04/15 11:44:05;;;;;;;5.20;3.75;;;;;;;;;;1883967;75;21166;-47
2024/04/15 11:46:35;;;;;;;4.65;3.75;;;;;;;;;;1872130;76;21149;-47
2024/04/15 11:49:04;;;;;;;6.25;4.65;;;;;;;;;;1878856;75;21047;-45
2024/04/15 11:51:33;;;;;;;7.87;5.37;;;;;;;;;;1890166;75;21071;-49
2024/04/15 11:54:02;;;;;;;10.23;4.95;;;;;;;;;;1890542;75;21016;-47
2024/04/15 11:56:30;;;;;;;8.18;4.37;;;;;;;;;;1880792;75;21158;-49
2024/04/15 11:58:59;;;;;;;5.33;3.65;;;;;;;;;;1882166;75;20995;-46
2024/04/15 12:01:28;;;;;;;8.50;4.40;;;;;;;;;;1881068;75;21084;-47
2024/04/15 12:04:02;;;;;;;6.37;4.17;;;;;;;;;;1889971;75;21027;-48
2024/04/15 12:06:31;;;;;;;8.13;5.17;;;;;;;;;;1885858;75;21150;-48
2024/04/15 12:09:02;;;;;;;8.28;4.58;;;;;;;;;;1888737;75;21557;-50
2024/04/15 12:11:31;;;;;;;11.40;4.50;;;;;;;;;;1885204;75;21015;-48
2024/04/15 12:14:00;;;;;;;9.30;4.83;;;;;;;;;;1886322;75;21079;-49
2024/04/15 12:16:28;;;;;;;6.60;4.62;;;;;;;;;;1896163;75;21016;-49
2024/04/15 12:18:57;;;;;;;10.70;4.85;;;;;;;;;;1903701;75;21095;-49
2024/04/15 12:21:25;;;;;;;7.28;4.28;;;;;;;;;;1904130;75;21079;-47
2024/04/15 12:23:54;;;;;;;10.43;4.58;;;;;;;;;;1904617;75;20995;-47
2024/04/15 12:26:26;;;;;;;9.15;4.42;;;;;;;;;;1905166;75;21000;-48
2024/04/15 12:28:55;;;;;;;5.85;4.25;;;;;;;;;;1900085;75;21084;-47
2024/04/15 12:31:23;;;;;;;6.42;3.95;;;;;;;;;;1889849;75;21023;-47
2024/04/15 12:33:52;;;;;;;8.90;4.40;;;;;;;;;;1889633;75;21079;-47
2024/04/15 12:36:21;;;;;;;6.87;4.22;;;;;;;;;;1887090;75;21179;-47
2024/04/15 12:38:50;;;;;;;5.47;3.20;;;;;;;;;;1888479;75;21012;-45
2024/04/15 12:41:18;;;;;;;8.23;3.58;;;;;;;;;;1890494;74;21011;-47
2024/04/15 12:43:48;;;;;;;8.73;3.98;;;;;;;;;;1888473;75;21417;-47
2024/04/15 12:46:17;;;;;;;10.82;4.58;;;;;;;;;;1887370;74;21127;-47
2024/04/15 12:48:46;;;;;;;9.73;4.15;;;;;;;;;;1889474;75;21005;-48
2024/04/15 12:51:17;;;;;;;8.03;4.28;;;;;;;;;;1877206;75;21084;-48
2024/04/15 12:53:45;;;;;;;6.40;3.62;;;;;;;;;;1872780;77;21550;-47
2024/04/15 12:56:14;;;;;;;5.40;4.28;;;;;;;;;;1872981;75;21172;-48
2024/04/15 12:58:42;;;;;;;14.45;6.30;;;;;;;;;;1889739;75;21000;-47
2024/04/15 13:01:11;;;;;;;6.92;4.05;;;;;;;;;;1889939;75;21033;-48
2024/04/15 13:03:39;;;;;;;8.85;3.02;;;;;;;;;;1890506;75;20991;-48
2024/04/15 13:06:08;;;;;;;9.00;3.25;;;;;;;;;;1889372;75;21091;-48
2024/04/15 13:08:37;;;;;;;8.25;3.83;;;;;;;;;;1887197;75;21122;-47
2024/04/15 13:11:08;;;;;;;5.15;3.50;;;;;;;;;;1888816;75;21065;-48
2024/04/15 13:13:37;;;;;;;7.12;3.30;;;;;;;;;;1890471;75;21122;-47
2024/04/15 13:16:06;;;;;;;6.90;3.22;;;;;;;;;;1888702;75;21094;-47
2024/04/15 13:18:34;;;;;;;15.63;4.78;;;;;;;;;;1882573;75;21076;-47
2024/04/15 13:21:05;;;;;;;9.13;3.65;;;;;;;;;;1872850;77;21048;-47
2024/04/15 13:23:34;;;;;;;2.50;2.08;;;;;;;;;;1897986;75;21002;-47
2024/04/15 13:26:02;;;;;;;17.50;4.00;;;;;;;;;;1900605;75;21303;-47
2024/04/15 13:28:31;;;;;;;6.87;3.33;;;;;;;;;;1888584;75;21001;-48
2024/04/15 13:31:02;;;;;;;7.55;3.70;;;;;;;;;;1888418;75;21093;-48
2024/04/15 13:33:31;;;;;;;10.00;3.58;;;;;;;;;;1899631;75;21548;-47
2024/04/15 13:35:59;;;;;;;7.42;3.45;;;;;;;;;;1890342;75;21008;-50
2024/04/15 13:38:28;;;;;;;7.47;3.90;;;;;;;;;;1887544;75;21091;-47
2024/04/15 13:40:57;;;;;;;13.20;4.05;;;;;;;;;;1889563;75;21039;-47
2024/04/15 13:43:25;;;;;;;10.43;3.70;;;;;;;;;;1905033;74;21095;-47
2024/04/15 13:45:54;;;;;;;8.73;3.33;;;;;;;;;;1904642;75;21063;-48
2024/04/15 13:48:22;;;;;;;9.60;3.12;;;;;;;;;;1905131;75;20999;-48
2024/04/15 13:50:51;;;;;;;4.45;2.70;;;;;;;;;;1904533;75;22181;-47
2024/04/15 13:53:19;;;;;;;9.33;3.25;;;;;;;;;;1905254;75;21059;-47
2024/04/15 13:55:49;;;;;;;26.17;3.85;;;;;;;;;;1905340;75;20996;-47
2024/04/15 13:58:17;;;;;;;9.18;2.92;;;;;;;;;;1905228;75;21081;-47
2024/04/15 14:00:48;;;;;;;11.53;3.60;;;;;;;;;;1905312;75;21073;-47
2024/04/15 14:03:15;;;;;;;8.93;2.50;;;;;;;;;;1905359;75;21113;-48
2024/04/15 14:05:44;;;;;;;4.75;2.98;;;;;;;;;;1905376;75;21069;-47
2024/04/15 14:08:14;;;;;;;8.18;3.12;;;;;;;;;;1905413;75;20999;-47
2024/04/15 14:10:43;;;;;;;8.25;3.22;;;;;;;;;;1905322;75;21470;-47
2024/04/15 14:13:12;;;;;;;4.40;2.83;;;;;;;;;;1905422;75;21059;-47
2024/04/15 14:15:41;;;;;;;14.53;3.95;;;;;;;;;;1905330;75;20992;-47
2024/04/15 14:18:10;;;;;;;5.45;3.27;;;;;;;;;;1905341;75;21071;-47
2024/04/15 14:20:38;;;;;;;14.53;3.85;;;;;;;;;;1903890;75;21156;-52
2024/04/15 14:23:07;;;;;;;12.15;3.40;;;;;;;;;;1894404;75;21093;-50